sensor_id;sensor_type;location;lat;lon;timestamp;temperature;humidity
18794;DHT22;29610;49.022;12.114;2023-05-16T00:02:14;8.50;99.90
18794;DHT22;29610;49.022;12.114;2023-05-16T00:05:03;8.50;99.90
18794;DHT22;29610;49.022;12.114;2023-05-16T00:07:55;8.60;99.90
18794;DHT22;29610;49.022;12.114;2023-05-16T00:10:44;8.60;99.90
18794;DHT22;29610;49.022;12.114;2023-05-16T00:13:32;8.50;99.90
18794;DHT22;29610;49.022;12.114;2023-05-16T00:16:21;8.50;99.90
18794;DHT22;29610;49.022;12.114;2023-05-16T00:19:12;8.40;99.90
18794;DHT22;29610;49.022;12.114;2023-05-16T00:22:01;8.40;99.90
18794;DHT22;29610;49.022;12.114;2023-05-16T00:24:52;8.40;99.90
18794;DHT22;29610;49.022;12.114;2023-05-16T00:27:41;8.40;99.90
18794;DHT22;29610;49.022;12.114;2023-05-16T00:30:33;8.40;99.90
18794;DHT22;29610;49.022;12.114;2023-05-16T00:33:22;8.50;99.90
18794;DHT22;29610;49.022;12.114;2023-05-16T00:36:11;8.40;99.90
18794;DHT22;29610;49.022;12.114;2023-05-16T00:39:00;8.20;99.90
18794;DHT22;29610;49.022;12.114;2023-05-16T00:41:50;8.10;99.90
18794;DHT22;29610;49.022;12.114;2023-05-16T00:44:39;7.90;99.90
18794;DHT22;29610;49.022;12.114;2023-05-16T00:47:28;7.80;99.90
18794;DHT22;29610;49.022;12.114;2023-05-16T00:50:17;7.80;99.90
18794;DHT22;29610;49.022;12.114;2023-05-16T00:53:06;7.80;99.90
18794;DHT22;29610;49.022;12.114;2023-05-16T00:55:56;7.80;99.90
18794;DHT22;29610;49.022;12.114;2023-05-16T00:58:47;7.80;99.90
18794;DHT22;29610;49.022;12.114;2023-05-16T01:01:37;7.90;99.90
18794;DHT22;29610;49.022;12.114;2023-05-16T01:04:28;7.90;99.90
18794;DHT22;29610;49.022;12.114;2023-05-16T01:07:20;7.80;99.90
18794;DHT22;29610;49.022;12.114;2023-05-16T01:10:09;7.80;99.90
18794;DHT22;29610;49.022;12.114;2023-05-16T01:13:08;7.80;99.90
18794;DHT22;29610;49.022;12.114;2023-05-16T01:16:09;7.80;99.90
18794;DHT22;29610;49.022;12.114;2023-05-16T01:19:13;7.80;99.90
18794;DHT22;29610;49.022;12.114;2023-05-16T01:22:17;7.80;99.90
18794;DHT22;29610;49.022;12.114;2023-05-16T01:25:24;7.70;99.90
18794;DHT22;29610;49.022;12.114;2023-05-16T01:28:21;7.70;99.90
18794;DHT22;29610;49.022;12.114;2023-05-16T01:31:12;7.80;99.90
18794;DHT22;29610;49.022;12.114;2023-05-16T01:34:02;7.80;99.90
18794;DHT22;29610;49.022;12.114;2023-05-16T01:36:59;7.80;99.90
18794;DHT22;29610;49.022;12.114;2023-05-16T01:39:58;7.80;99.90
18794;DHT22;29610;49.022;12.114;2023-05-16T01:42:54;7.80;99.90
18794;DHT22;29610;49.022;12.114;2023-05-16T01:45:54;7.80;99.90
18794;DHT22;29610;49.022;12.114;2023-05-16T01:48:52;7.90;99.90
18794;DHT22;29610;49.022;12.114;2023-05-16T01:52:02;7.90;99.90
18794;DHT22;29610;49.022;12.114;2023-05-16T01:54:57;7.90;99.90
18794;DHT22;29610;49.022;12.114;2023-05-16T01:57:48;7.90;99.90
18794;DHT22;29610;49.022;12.114;2023-05-16T02:00:39;8.00;99.90
18794;DHT22;29610;49.022;12.114;2023-05-16T02:03:29;8.00;99.90
18794;DHT22;29610;49.022;12.114;2023-05-16T02:06:19;8.00;99.90
18794;DHT22;29610;49.022;12.114;2023-05-16T02:09:08;8.00;99.90
18794;DHT22;29610;49.022;12.114;2023-05-16T02:12:00;8.00;99.90
18794;DHT22;29610;49.022;12.114;2023-05-16T02:14:49;8.00;99.90
18794;DHT22;29610;49.022;12.114;2023-05-16T02:17:38;8.00;99.90
18794;DHT22;29610;49.022;12.114;2023-05-16T02:20:29;8.00;99.90
18794;DHT22;29610;49.022;12.114;2023-05-16T02:23:20;8.00;99.90
18794;DHT22;29610;49.022;12.114;2023-05-16T02:26:09;8.00;99.90
18794;DHT22;29610;49.022;12.114;2023-05-16T02:28:58;8.00;99.90
18794;DHT22;29610;49.022;12.114;2023-05-16T02:31:47;7.90;99.90
18794;DHT22;29610;49.022;12.114;2023-05-16T02:34:36;7.90;99.90
18794;DHT22;29610;49.022;12.114;2023-05-16T02:37:26;7.90;99.90
18794;DHT22;29610;49.022;12.114;2023-05-16T02:40:16;7.90;99.90
18794;DHT22;29610;49.022;12.114;2023-05-16T02:43:05;7.70;99.90
18794;DHT22;29610;49.022;12.114;2023-05-16T02:45:55;7.70;99.90
18794;DHT22;29610;49.022;12.114;2023-05-16T02:48:43;7.70;99.90
18794;DHT22;29610;49.022;12.114;2023-05-16T02:51:35;7.60;99.90
18794;DHT22;29610;49.022;12.114;2023-05-16T02:54:25;7.70;99.90
18794;DHT22;29610;49.022;12.114;2023-05-16T02:57:14;7.70;99.90
18794;DHT22;29610;49.022;12.114;2023-05-16T03:00:04;7.70;99.90
18794;DHT22;29610;49.022;12.114;2023-05-16T03:02:56;7.70;99.90
18794;DHT22;29610;49.022;12.114;2023-05-16T03:05:45;7.70;99.90
18794;DHT22;29610;49.022;12.114;2023-05-16T03:08:34;7.70;99.90
18794;DHT22;29610;49.022;12.114;2023-05-16T03:11:25;7.70;99.90
18794;DHT22;29610;49.022;12.114;2023-05-16T03:14:15;7.80;99.90
18794;DHT22;29610;49.022;12.114;2023-05-16T03:17:05;7.80;99.90
18794;DHT22;29610;49.022;12.114;2023-05-16T03:19:54;7.80;99.90
18794;DHT22;29610;49.022;12.114;2023-05-16T03:22:43;7.90;99.90
18794;DHT22;29610;49.022;12.114;2023-05-16T03:25:32;7.80;99.90
18794;DHT22;29610;49.022;12.114;2023-05-16T03:28:22;7.80;99.90
18794;DHT22;29610;49.022;12.114;2023-05-16T03:31:14;7.80;99.90
18794;DHT22;29610;49.022;12.114;2023-05-16T03:34:03;7.80;99.90
18794;DHT22;29610;49.022;12.114;2023-05-16T03:36:52;7.90;99.90
18794;DHT22;29610;49.022;12.114;2023-05-16T03:39:40;7.90;99.90
18794;DHT22;29610;49.022;12.114;2023-05-16T03:42:29;7.80;99.90
18794;DHT22;29610;49.022;12.114;2023-05-16T03:45:20;7.90;99.90
18794;DHT22;29610;49.022;12.114;2023-05-16T03:48:08;7.90;99.90
18794;DHT22;29610;49.022;12.114;2023-05-16T03:50:57;7.90;99.90
18794;DHT22;29610;49.022;12.114;2023-05-16T03:53:46;7.90;99.90
18794;DHT22;29610;49.022;12.114;2023-05-16T03:56:35;8.10;99.90
18794;DHT22;29610;49.022;12.114;2023-05-16T03:59:24;8.00;99.90
18794;DHT22;29610;49.022;12.114;2023-05-16T04:02:14;7.90;99.90
18794;DHT22;29610;49.022;12.114;2023-05-16T04:05:06;7.90;99.90
18794;DHT22;29610;49.022;12.114;2023-05-16T04:07:56;7.90;99.90
18794;DHT22;29610;49.022;12.114;2023-05-16T04:10:45;8.00;99.90
18794;DHT22;29610;49.022;12.114;2023-05-16T04:13:34;8.00;99.90
18794;DHT22;29610;49.022;12.114;2023-05-16T04:16:23;8.00;99.90
18794;DHT22;29610;49.022;12.114;2023-05-16T04:19:13;8.10;99.90
18794;DHT22;29610;49.022;12.114;2023-05-16T04:22:05;8.20;99.90
18794;DHT22;29610;49.022;12.114;2023-05-16T04:25:02;8.30;99.90
18794;DHT22;29610;49.022;12.114;2023-05-16T04:27:50;8.30;99.90
18794;DHT22;29610;49.022;12.114;2023-05-16T04:30:40;8.40;99.90
18794;DHT22;29610;49.022;12.114;2023-05-16T04:33:29;8.60;99.90
18794;DHT22;29610;49.022;12.114;2023-05-16T04:36:19;8.60;99.90
18794;DHT22;29610;49.022;12.114;2023-05-16T04:39:08;8.70;99.90
18794;DHT22;29610;49.022;12.114;2023-05-16T04:41:58;8.70;99.90
18794;DHT22;29610;49.022;12.114;2023-05-16T04:44:47;8.80;99.90
18794;DHT22;29610;49.022;12.114;2023-05-16T04:47:36;8.90;99.90
18794;DHT22;29610;49.022;12.114;2023-05-16T04:50:25;9.00;99.90
18794;DHT22;29610;49.022;12.114;2023-05-16T04:53:16;9.00;99.90
18794;DHT22;29610;49.022;12.114;2023-05-16T04:56:05;9.30;99.90
18794;DHT22;29610;49.022;12.114;2023-05-16T04:58:54;9.40;99.90
18794;DHT22;29610;49.022;12.114;2023-05-16T05:01:43;9.40;99.90
18794;DHT22;29610;49.022;12.114;2023-05-16T05:04:32;9.30;99.90
18794;DHT22;29610;49.022;12.114;2023-05-16T05:07:22;9.40;99.90
18794;DHT22;29610;49.022;12.114;2023-05-16T05:10:15;9.50;99.90
18794;DHT22;29610;49.022;12.114;2023-05-16T05:13:04;9.60;99.90
18794;DHT22;29610;49.022;12.114;2023-05-16T05:15:53;9.60;99.90
18794;DHT22;29610;49.022;12.114;2023-05-16T05:18:42;9.40;99.90
18794;DHT22;29610;49.022;12.114;2023-05-16T05:21:31;9.60;99.90
18794;DHT22;29610;49.022;12.114;2023-05-16T05:24:20;9.80;99.90
18794;DHT22;29610;49.022;12.114;2023-05-16T05:27:11;9.90;99.90
18794;DHT22;29610;49.022;12.114;2023-05-16T05:30:00;10.00;99.90
18794;DHT22;29610;49.022;12.114;2023-05-16T05:32:49;10.20;99.90
18794;DHT22;29610;49.022;12.114;2023-05-16T05:35:39;10.30;99.90
18794;DHT22;29610;49.022;12.114;2023-05-16T05:38:28;10.50;99.90
18794;DHT22;29610;49.022;12.114;2023-05-16T05:41:17;10.70;99.90
18794;DHT22;29610;49.022;12.114;2023-05-16T05:44:07;11.00;99.90
18794;DHT22;29610;49.022;12.114;2023-05-16T05:46:57;11.20;99.90
18794;DHT22;29610;49.022;12.114;2023-05-16T05:49:46;11.30;99.90
18794;DHT22;29610;49.022;12.114;2023-05-16T05:52:36;11.20;99.90
18794;DHT22;29610;49.022;12.114;2023-05-16T05:55:25;11.10;99.90
18794;DHT22;29610;49.022;12.114;2023-05-16T05:58:14;11.10;99.90
18794;DHT22;29610;49.022;12.114;2023-05-16T06:01:05;11.10;99.90
18794;DHT22;29610;49.022;12.114;2023-05-16T06:03:54;11.20;99.90
18794;DHT22;29610;49.022;12.114;2023-05-16T06:06:45;11.20;99.90
18794;DHT22;29610;49.022;12.114;2023-05-16T06:09:34;11.10;99.90
18794;DHT22;29610;49.022;12.114;2023-05-16T06:12:22;11.20;99.90
18794;DHT22;29610;49.022;12.114;2023-05-16T06:15:11;11.20;99.90
18794;DHT22;29610;49.022;12.114;2023-05-16T06:18:02;11.40;99.90
18794;DHT22;29610;49.022;12.114;2023-05-16T06:20:51;11.20;99.90
18794;DHT22;29610;49.022;12.114;2023-05-16T06:23:43;11.30;99.90
18794;DHT22;29610;49.022;12.114;2023-05-16T06:26:34;11.40;99.90
18794;DHT22;29610;49.022;12.114;2023-05-16T06:29:23;11.70;99.90
18794;DHT22;29610;49.022;12.114;2023-05-16T06:32:12;12.00;99.90
18794;DHT22;29610;49.022;12.114;2023-05-16T06:35:03;12.40;99.90
18794;DHT22;29610;49.022;12.114;2023-05-16T06:37:52;12.70;99.90
18794;DHT22;29610;49.022;12.114;2023-05-16T06:40:41;12.80;99.90
18794;DHT22;29610;49.022;12.114;2023-05-16T06:43:29;13.50;99.90
18794;DHT22;29610;49.022;12.114;2023-05-16T06:46:18;13.60;99.90
18794;DHT22;29610;49.022;12.114;2023-05-16T06:49:07;13.50;99.90
18794;DHT22;29610;49.022;12.114;2023-05-16T06:51:58;13.60;99.90
18794;DHT22;29610;49.022;12.114;2023-05-16T06:54:46;13.70;99.90
18794;DHT22;29610;49.022;12.114;2023-05-16T06:57:35;13.90;99.90
18794;DHT22;29610;49.022;12.114;2023-05-16T07:00:24;14.30;99.90
18794;DHT22;29610;49.022;12.114;2023-05-16T07:03:13;14.50;99.90
18794;DHT22;29610;49.022;12.114;2023-05-16T07:06:03;14.80;99.90
18794;DHT22;29610;49.022;12.114;2023-05-16T07:08:53;14.90;99.90
18794;DHT22;29610;49.022;12.114;2023-05-16T07:11:42;15.00;99.90
18794;DHT22;29610;49.022;12.114;2023-05-16T07:14:31;14.90;99.90
18794;DHT22;29610;49.022;12.114;2023-05-16T07:17:19;14.90;99.90
18794;DHT22;29610;49.022;12.114;2023-05-16T07:20:09;15.00;99.90
18794;DHT22;29610;49.022;12.114;2023-05-16T07:23:00;15.30;99.90
18794;DHT22;29610;49.022;12.114;2023-05-16T07:25:51;15.40;99.90
18794;DHT22;29610;49.022;12.114;2023-05-16T07:28:40;15.20;99.90
18794;DHT22;29610;49.022;12.114;2023-05-16T07:31:29;15.10;99.90
18794;DHT22;29610;49.022;12.114;2023-05-16T07:34:18;15.20;99.90
18794;DHT22;29610;49.022;12.114;2023-05-16T07:37:07;15.60;99.90
18794;DHT22;29610;49.022;12.114;2023-05-16T07:39:59;16.00;99.90
18794;DHT22;29610;49.022;12.114;2023-05-16T07:42:51;16.80;98.70
18794;DHT22;29610;49.022;12.114;2023-05-16T07:45:40;17.50;98.00
18794;DHT22;29610;49.022;12.114;2023-05-16T07:48:29;17.60;95.60
18794;DHT22;29610;49.022;12.114;2023-05-16T07:51:18;17.20;96.00
18794;DHT22;29610;49.022;12.114;2023-05-16T07:54:07;17.20;95.20
18794;DHT22;29610;49.022;12.114;2023-05-16T07:56:57;17.50;95.60
18794;DHT22;29610;49.022;12.114;2023-05-16T07:59:47;17.40;94.20
18794;DHT22;29610;49.022;12.114;2023-05-16T08:02:39;16.90;95.10
18794;DHT22;29610;49.022;12.114;2023-05-16T08:05:28;16.40;96.30
18794;DHT22;29610;49.022;12.114;2023-05-16T08:08:17;16.30;96.40
18794;DHT22;29610;49.022;12.114;2023-05-16T08:11:06;16.70;95.90
18794;DHT22;29610;49.022;12.114;2023-05-16T08:13:58;17.20;95.20
18794;DHT22;29610;49.022;12.114;2023-05-16T08:16:48;18.00;95.30
18794;DHT22;29610;49.022;12.114;2023-05-16T08:19:36;18.50;93.40
18794;DHT22;29610;49.022;12.114;2023-05-16T08:22:25;18.00;94.30
18794;DHT22;29610;49.022;12.114;2023-05-16T08:25:14;18.00;92.90
18794;DHT22;29610;49.022;12.114;2023-05-16T08:28:03;17.80;93.80
18794;DHT22;29610;49.022;12.114;2023-05-16T08:30:52;17.90;92.80
18794;DHT22;29610;49.022;12.114;2023-05-16T08:33:43;17.70;93.60
18794;DHT22;29610;49.022;12.114;2023-05-16T08:36:31;17.70;92.90
18794;DHT22;29610;49.022;12.114;2023-05-16T08:39:21;17.50;93.10
18794;DHT22;29610;49.022;12.114;2023-05-16T08:42:09;17.70;93.90
18794;DHT22;29610;49.022;12.114;2023-05-16T08:44:59;18.20;92.90
18794;DHT22;29610;49.022;12.114;2023-05-16T08:47:49;19.00;92.20
18794;DHT22;29610;49.022;12.114;2023-05-16T08:50:40;19.30;91.40
18794;DHT22;29610;49.022;12.114;2023-05-16T08:53:31;19.80;91.70
18794;DHT22;29610;49.022;12.114;2023-05-16T08:56:28;20.10;88.90
18794;DHT22;29610;49.022;12.114;2023-05-16T08:59:18;19.50;90.10
18794;DHT22;29610;49.022;12.114;2023-05-16T09:02:08;19.20;90.20
18794;DHT22;29610;49.022;12.114;2023-05-16T09:04:57;18.70;90.70
18794;DHT22;29610;49.022;12.114;2023-05-16T09:07:48;18.40;90.30
18794;DHT22;29610;49.022;12.114;2023-05-16T09:10:37;18.50;91.30
18794;DHT22;29610;49.022;12.114;2023-05-16T09:13:28;18.70;91.00
18794;DHT22;29610;49.022;12.114;2023-05-16T09:16:19;18.50;90.80
18794;DHT22;29610;49.022;12.114;2023-05-16T09:19:11;18.60;90.40
18794;DHT22;29610;49.022;12.114;2023-05-16T09:22:01;18.70;90.10
18794;DHT22;29610;49.022;12.114;2023-05-16T09:24:52;18.60;90.80
18794;DHT22;29610;49.022;12.114;2023-05-16T09:27:40;18.40;90.70
18794;DHT22;29610;49.022;12.114;2023-05-16T09:30:31;18.60;89.40
18794;DHT22;29610;49.022;12.114;2023-05-16T09:33:21;18.30;89.70
18794;DHT22;29610;49.022;12.114;2023-05-16T09:36:10;18.30;89.00
18794;DHT22;29610;49.022;12.114;2023-05-16T09:39:00;18.00;89.80
18794;DHT22;29610;49.022;12.114;2023-05-16T09:41:52;17.90;90.80
18794;DHT22;29610;49.022;12.114;2023-05-16T09:44:45;17.80;90.20
18794;DHT22;29610;49.022;12.114;2023-05-16T09:47:35;17.60;90.50
18794;DHT22;29610;49.022;12.114;2023-05-16T09:50:32;17.60;92.10
18794;DHT22;29610;49.022;12.114;2023-05-16T09:53:26;17.00;92.90
18794;DHT22;29610;49.022;12.114;2023-05-16T09:56:16;16.40;93.50
18794;DHT22;29610;49.022;12.114;2023-05-16T09:59:10;16.00;96.30
18794;DHT22;29610;49.022;12.114;2023-05-16T10:01:59;15.80;95.90
18794;DHT22;29610;49.022;12.114;2023-05-16T10:04:51;15.20;98.80
18794;DHT22;29610;49.022;12.114;2023-05-16T10:07:40;14.90;99.30
18794;DHT22;29610;49.022;12.114;2023-05-16T10:10:35;14.60;99.90
18794;DHT22;29610;49.022;12.114;2023-05-16T10:13:28;14.30;99.90
18794;DHT22;29610;49.022;12.114;2023-05-16T10:16:21;13.90;99.90
18794;DHT22;29610;49.022;12.114;2023-05-16T10:19:12;13.40;99.90
18794;DHT22;29610;49.022;12.114;2023-05-16T10:22:04;12.70;98.40
18794;DHT22;29610;49.022;12.114;2023-05-16T10:24:59;12.50;99.90
18794;DHT22;29610;49.022;12.114;2023-05-16T10:27:55;12.30;99.90
18794;DHT22;29610;49.022;12.114;2023-05-16T10:30:46;12.40;99.90
18794;DHT22;29610;49.022;12.114;2023-05-16T10:33:37;12.70;99.90
18794;DHT22;29610;49.022;12.114;2023-05-16T10:36:27;12.90;99.90
18794;DHT22;29610;49.022;12.114;2023-05-16T10:39:16;13.20;99.90
18794;DHT22;29610;49.022;12.114;2023-05-16T10:42:06;13.40;99.90
18794;DHT22;29610;49.022;12.114;2023-05-16T10:45:08;13.30;99.90
18794;DHT22;29610;49.022;12.114;2023-05-16T10:48:04;13.20;99.90
18794;DHT22;29610;49.022;12.114;2023-05-16T10:50:57;13.20;99.90
18794;DHT22;29610;49.022;12.114;2023-05-16T10:53:46;13.30;99.90
18794;DHT22;29610;49.022;12.114;2023-05-16T10:56:39;13.30;99.90
18794;DHT22;29610;49.022;12.114;2023-05-16T10:59:39;13.30;99.90
18794;DHT22;29610;49.022;12.114;2023-05-16T11:02:33;13.30;99.90
18794;DHT22;29610;49.022;12.114;2023-05-16T11:05:29;12.90;99.90
18794;DHT22;29610;49.022;12.114;2023-05-16T11:08:20;12.80;99.90
18794;DHT22;29610;49.022;12.114;2023-05-16T11:11:37;12.70;99.90
18794;DHT22;29610;49.022;12.114;2023-05-16T11:14:34;12.70;99.90
18794;DHT22;29610;49.022;12.114;2023-05-16T11:17:25;12.80;99.90
18794;DHT22;29610;49.022;12.114;2023-05-16T11:20:25;12.90;99.90
18794;DHT22;29610;49.022;12.114;2023-05-16T11:23:23;13.00;99.90
18794;DHT22;29610;49.022;12.114;2023-05-16T11:26:13;13.20;99.90
18794;DHT22;29610;49.022;12.114;2023-05-16T11:29:06;13.30;99.90
18794;DHT22;29610;49.022;12.114;2023-05-16T11:31:57;13.50;99.90
18794;DHT22;29610;49.022;12.114;2023-05-16T11:34:47;13.70;99.90
18794;DHT22;29610;49.022;12.114;2023-05-16T11:37:36;13.80;99.90
18794;DHT22;29610;49.022;12.114;2023-05-16T11:40:27;14.00;99.90
18794;DHT22;29610;49.022;12.114;2023-05-16T11:43:17;14.20;99.90
18794;DHT22;29610;49.022;12.114;2023-05-16T11:46:09;14.40;99.90
18794;DHT22;29610;49.022;12.114;2023-05-16T11:48:58;14.20;99.90
18794;DHT22;29610;49.022;12.114;2023-05-16T11:51:47;13.90;99.90
18794;DHT22;29610;49.022;12.114;2023-05-16T11:54:39;13.50;99.90
18794;DHT22;29610;49.022;12.114;2023-05-16T11:57:30;13.30;99.90
18794;DHT22;29610;49.022;12.114;2023-05-16T12:00:21;13.30;99.90
18794;DHT22;29610;49.022;12.114;2023-05-16T12:03:12;13.30;99.90
18794;DHT22;29610;49.022;12.114;2023-05-16T12:06:01;13.30;99.90
18794;DHT22;29610;49.022;12.114;2023-05-16T12:08:51;13.30;99.90
18794;DHT22;29610;49.022;12.114;2023-05-16T12:11:42;13.30;99.90
18794;DHT22;29610;49.022;12.114;2023-05-16T12:14:33;13.40;99.90
18794;DHT22;29610;49.022;12.114;2023-05-16T12:17:22;13.60;99.90
18794;DHT22;29610;49.022;12.114;2023-05-16T12:20:12;13.80;99.90
18794;DHT22;29610;49.022;12.114;2023-05-16T12:23:03;13.90;99.90
18794;DHT22;29610;49.022;12.114;2023-05-16T12:25:51;14.10;99.90
18794;DHT22;29610;49.022;12.114;2023-05-16T12:28:44;14.30;99.90
18794;DHT22;29610;49.022;12.114;2023-05-16T12:31:37;14.50;99.90
18794;DHT22;29610;49.022;12.114;2023-05-16T12:34:28;14.60;99.90
18794;DHT22;29610;49.022;12.114;2023-05-16T12:37:20;14.80;99.90
18794;DHT22;29610;49.022;12.114;2023-05-16T12:40:10;14.90;99.90
18794;DHT22;29610;49.022;12.114;2023-05-16T12:42:59;15.10;99.90
18794;DHT22;29610;49.022;12.114;2023-05-16T12:45:49;15.20;99.90
18794;DHT22;29610;49.022;12.114;2023-05-16T12:48:41;15.30;99.90
18794;DHT22;29610;49.022;12.114;2023-05-16T12:51:30;15.40;99.90
18794;DHT22;29610;49.022;12.114;2023-05-16T12:54:21;15.30;99.90
18794;DHT22;29610;49.022;12.114;2023-05-16T12:57:10;15.20;99.90
18794;DHT22;29610;49.022;12.114;2023-05-16T12:59:59;15.10;99.90
18794;DHT22;29610;49.022;12.114;2023-05-16T13:02:49;15.20;99.90
18794;DHT22;29610;49.022;12.114;2023-05-16T13:05:40;15.20;99.90
18794;DHT22;29610;49.022;12.114;2023-05-16T13:08:29;15.40;99.90
18794;DHT22;29610;49.022;12.114;2023-05-16T13:11:19;15.50;99.90
18794;DHT22;29610;49.022;12.114;2023-05-16T13:14:08;15.70;99.90
18794;DHT22;29610;49.022;12.114;2023-05-16T13:16:57;15.80;99.90
18794;DHT22;29610;49.022;12.114;2023-05-16T13:19:46;15.80;99.90
18794;DHT22;29610;49.022;12.114;2023-05-16T13:22:36;15.80;99.90
18794;DHT22;29610;49.022;12.114;2023-05-16T13:25:26;15.80;99.90
18794;DHT22;29610;49.022;12.114;2023-05-16T13:28:15;15.50;99.90
18794;DHT22;29610;49.022;12.114;2023-05-16T13:31:04;15.20;99.90
18794;DHT22;29610;49.022;12.114;2023-05-16T13:33:55;14.80;99.90
18794;DHT22;29610;49.022;12.114;2023-05-16T13:36:45;14.80;99.90
18794;DHT22;29610;49.022;12.114;2023-05-16T13:39:42;14.80;99.90
18794;DHT22;29610;49.022;12.114;2023-05-16T13:42:31;14.70;99.90
18794;DHT22;29610;49.022;12.114;2023-05-16T13:45:20;14.70;99.90
18794;DHT22;29610;49.022;12.114;2023-05-16T13:48:09;14.70;99.90
18794;DHT22;29610;49.022;12.114;2023-05-16T13:50:58;14.70;99.90
18794;DHT22;29610;49.022;12.114;2023-05-16T13:53:47;14.60;99.90
18794;DHT22;29610;49.022;12.114;2023-05-16T13:56:38;14.70;99.90
18794;DHT22;29610;49.022;12.114;2023-05-16T13:59:27;14.60;99.90
18794;DHT22;29610;49.022;12.114;2023-05-16T14:02:35;14.40;99.90
18794;DHT22;29610;49.022;12.114;2023-05-16T14:05:24;14.30;99.90
18794;DHT22;29610;49.022;12.114;2023-05-16T14:08:14;14.20;99.90
18794;DHT22;29610;49.022;12.114;2023-05-16T14:11:03;14.20;99.90
18794;DHT22;29610;49.022;12.114;2023-05-16T14:13:54;13.90;99.90
18794;DHT22;29610;49.022;12.114;2023-05-16T14:16:43;13.80;99.90
18794;DHT22;29610;49.022;12.114;2023-05-16T14:19:32;13.80;99.90
18794;DHT22;29610;49.022;12.114;2023-05-16T14:22:22;13.90;99.90
18794;DHT22;29610;49.022;12.114;2023-05-16T14:25:11;13.90;99.90
18794;DHT22;29610;49.022;12.114;2023-05-16T14:28:00;13.80;99.90
18794;DHT22;29610;49.022;12.114;2023-05-16T14:30:51;13.90;99.90
18794;DHT22;29610;49.022;12.114;2023-05-16T14:33:39;13.80;99.90
18794;DHT22;29610;49.022;12.114;2023-05-16T14:36:30;13.70;99.90
18794;DHT22;29610;49.022;12.114;2023-05-16T14:39:19;13.70;99.90
18794;DHT22;29610;49.022;12.114;2023-05-16T14:42:08;13.50;99.90
18794;DHT22;29610;49.022;12.114;2023-05-16T14:44:57;13.60;99.90
18794;DHT22;29610;49.022;12.114;2023-05-16T14:47:47;13.40;99.90
18794;DHT22;29610;49.022;12.114;2023-05-16T14:50:36;13.30;99.90
18794;DHT22;29610;49.022;12.114;2023-05-16T14:53:25;13.20;99.90
18794;DHT22;29610;49.022;12.114;2023-05-16T14:56:14;13.20;99.90
18794;DHT22;29610;49.022;12.114;2023-05-16T14:59:03;13.10;99.90
18794;DHT22;29610;49.022;12.114;2023-05-16T15:01:52;13.10;99.90
18794;DHT22;29610;49.022;12.114;2023-05-16T15:04:42;13.30;99.90
18794;DHT22;29610;49.022;12.114;2023-05-16T15:07:32;13.20;99.90
18794;DHT22;29610;49.022;12.114;2023-05-16T15:10:21;13.30;99.90
18794;DHT22;29610;49.022;12.114;2023-05-16T15:13:13;13.50;99.90
18794;DHT22;29610;49.022;12.114;2023-05-16T15:16:02;13.60;99.90
18794;DHT22;29610;49.022;12.114;2023-05-16T15:18:52;13.60;99.90
18794;DHT22;29610;49.022;12.114;2023-05-16T15:21:42;13.80;99.90
18794;DHT22;29610;49.022;12.114;2023-05-16T15:24:32;14.00;99.90
18794;DHT22;29610;49.022;12.114;2023-05-16T15:27:21;14.20;99.90
18794;DHT22;29610;49.022;12.114;2023-05-16T15:30:10;14.10;99.90
18794;DHT22;29610;49.022;12.114;2023-05-16T15:33:00;14.10;99.90
18794;DHT22;29610;49.022;12.114;2023-05-16T15:35:52;14.30;99.90
18794;DHT22;29610;49.022;12.114;2023-05-16T15:38:42;14.40;99.50
18794;DHT22;29610;49.022;12.114;2023-05-16T15:41:33;14.30;98.10
18794;DHT22;29610;49.022;12.114;2023-05-16T15:44:41;14.20;98.50
18794;DHT22;29610;49.022;12.114;2023-05-16T15:47:30;14.30;97.20
18794;DHT22;29610;49.022;12.114;2023-05-16T15:50:19;14.30;96.30
18794;DHT22;29610;49.022;12.114;2023-05-16T15:53:08;14.10;94.70
18794;DHT22;29610;49.022;12.114;2023-05-16T15:55:58;14.00;94.50
18794;DHT22;29610;49.022;12.114;2023-05-16T15:58:47;14.00;94.70
18794;DHT22;29610;49.022;12.114;2023-05-16T16:01:36;14.20;94.70
18794;DHT22;29610;49.022;12.114;2023-05-16T16:04:27;14.30;93.90
18794;DHT22;29610;49.022;12.114;2023-05-16T16:07:16;14.30;94.50
18794;DHT22;29610;49.022;12.114;2023-05-16T16:10:06;14.40;95.30
18794;DHT22;29610;49.022;12.114;2023-05-16T16:13:01;14.20;94.60
18794;DHT22;29610;49.022;12.114;2023-05-16T16:15:51;14.00;94.40
18794;DHT22;29610;49.022;12.114;2023-05-16T16:18:40;14.10;94.40
18794;DHT22;29610;49.022;12.114;2023-05-16T16:21:29;14.10;94.20
18794;DHT22;29610;49.022;12.114;2023-05-16T16:24:19;14.00;94.20
18794;DHT22;29610;49.022;12.114;2023-05-16T16:27:08;13.90;94.20
18794;DHT22;29610;49.022;12.114;2023-05-16T16:29:58;13.70;94.00
18794;DHT22;29610;49.022;12.114;2023-05-16T16:32:47;13.40;94.30
18794;DHT22;29610;49.022;12.114;2023-05-16T16:35:36;13.40;94.90
18794;DHT22;29610;49.022;12.114;2023-05-16T16:38:25;13.30;94.70
18794;DHT22;29610;49.022;12.114;2023-05-16T16:41:14;13.20;95.20
18794;DHT22;29610;49.022;12.114;2023-05-16T16:44:03;13.20;94.90
18794;DHT22;29610;49.022;12.114;2023-05-16T16:46:54;13.00;94.60
18794;DHT22;29610;49.022;12.114;2023-05-16T16:49:42;12.80;94.40
18794;DHT22;29610;49.022;12.114;2023-05-16T16:52:31;12.70;94.60
18794;DHT22;29610;49.022;12.114;2023-05-16T16:55:20;12.70;94.90
18794;DHT22;29610;49.022;12.114;2023-05-16T16:58:09;12.70;95.20
18794;DHT22;29610;49.022;12.114;2023-05-16T17:00:58;12.70;94.80
18794;DHT22;29610;49.022;12.114;2023-05-16T17:03:48;12.70;94.90
18794;DHT22;29610;49.022;12.114;2023-05-16T17:06:37;12.60;95.00
18794;DHT22;29610;49.022;12.114;2023-05-16T17:09:26;12.60;94.90
18794;DHT22;29610;49.022;12.114;2023-05-16T17:12:15;12.60;95.20
18794;DHT22;29610;49.022;12.114;2023-05-16T17:15:08;12.60;95.00
18794;DHT22;29610;49.022;12.114;2023-05-16T17:17:58;12.60;95.30
18794;DHT22;29610;49.022;12.114;2023-05-16T17:20:48;12.50;94.60
18794;DHT22;29610;49.022;12.114;2023-05-16T17:23:40;12.40;94.20
18794;DHT22;29610;49.022;12.114;2023-05-16T17:26:30;12.30;94.40
18794;DHT22;29610;49.022;12.114;2023-05-16T17:29:19;12.30;94.40
18794;DHT22;29610;49.022;12.114;2023-05-16T17:32:08;12.20;94.60
18794;DHT22;29610;49.022;12.114;2023-05-16T17:34:57;12.20;94.70
18794;DHT22;29610;49.022;12.114;2023-05-16T17:37:52;12.10;94.90
18794;DHT22;29610;49.022;12.114;2023-05-16T17:40:41;12.10;94.90
18794;DHT22;29610;49.022;12.114;2023-05-16T17:43:33;12.00;95.00
18794;DHT22;29610;49.022;12.114;2023-05-16T17:46:22;12.00;95.10